Airfield :
LOGIN :

Register | Disclaimer

   EN    FR    IT 

 










Legend :    VFR   Marginal VFR   IFR   Intensive IFR   Very Intensive IFR
Visi :
Ceiling :
>= 8 km
>= 3000ft
5 to 8 km
1000 to 3000 ft
1500m to 5 km
500 to 1000 ft
800 to 1500m
200 to 500 ft
< 800m
< 200 ft
Symbols :   Thunderstorms  Fog  Heavy snow  Heavy precipitations  Wind > 20 kt
SIGMETs :     Misc.  Thunderstorms  Icing  Turbulence  Mountain Waves  Volcanic Ashes







- Airport Elevation : 1247 ft
- IATA code : PRG


LKPR - Praha Ruzyne

CURRENT METAR :
  • 231730Z 23009KT CAVOK 03/01 Q1025 NOSIG

EXPIRED METARs :
  • 231700Z 23009KT CAVOK 03/01 Q1025 NOSIG
  • 231630Z 22008KT CAVOK 03/01 Q1025 NOSIG
  • 231600Z 22010KT 9999 FEW023 03/02 Q1024 NOSIG
  • 231530Z 24008KT 9999 FEW023 03/01 Q1024 NOSIG
  • 231500Z 23009KT 9999 FEW023 04/01 Q1024 NOSIG

TAF TAF LKPR
Valid from the 23 at 18:00 until the 25 at 00:00 UTC


231700Z 2318/2500 23012KT CAVOK
BECMG 2400/2403 9999 BKN025
TEMPO 2403/2407 6000 RA BKN016
BECMG 2411/2414 CAVOK
No reported NOTAMs for that airfield.



MET'MAP, your aeronautical weather chart ! - Copyright ORBIFLY December 2007 - Disclaimer

ORBIFLY MET'MAP TEAM :

Programming & Development : Alexandra Zaïnal
Concept & Development : Baudouin d'Aumeries
Co-Development & Prog : Marc-Olivier Méhu
Technical & hardware support : Manuel Goepfert

Contact : metmap@orbifly.com




SOURCES & CREDITS :

   NOAA